CYLT

Alert Airport

Alert, Canada
METAR CYLT 120900Z 00000KT 7SM IC OVC006 M21/M23 A2934 RMK ST8 SLP942
Observed Flight Rules
Dec-12 @ 09:00 UTC (44 minutes ago) Instrument Flight Rules
Visibility Clouds Conditions
7 miles
  • Overcast at 600' AGL
  • Ice crystals
Temperatures Readings
Current -21°C / -6°F
Dewpoint -23°C / -9°F
Humidity 84%
Altimeter 29.34" Hg
Pressure 994.2 hPa
Elevation 31
METAR CYLT 120900Z 00000KT 7SM IC OVC006 M21/M23 A2934 RMK ST8 SLP942
Observed Flight Rules
Dec-12 @ 09:00 UTC
(44 minutes ago)
IFR
Clouds
  • Overcast at 600' AGL
Conditions
  • Ice crystals
Temperature Dewpoint
-21°C / -6°F -23°C / -9°F
Humidity Altimeter Pressure
84% 29.34" Hg 994.2 hPa